Qm Of London — ZCTD7 — position and weather

sailwx.info

Track history (hours):
 
Tides and Currents Weather Stations Pressure Air Temp Water Temp Dewpoint Dewpoint Depression Visibility Wind Speed Wind Dir Waves Ship Positions

Qm Of London

Last reported at 2016-Jun-19 20:08 UTC. Time now 2016-Jun-25 14:21 UTC.
Position N 42°25' E 018°28'.

Length 50 m; draft 2.7 m.

Type: Pleasure craft. MMSI: 319780000.

Date/timePositionNaut miles runAvg speedWind from/ knotsBaromVisibWave heightAir tempDewpointWater temp
2016-Jun-19 20:08N 42°25' E 018°28'4 7.6
2016-Jun-19 19:33N 42°26' E 018°34'5 5.4
2016-Jun-19 18:33N 42°26' E 018°41'4 3.5
2016-Jun-19 17:33N 42°28' E 018°45'1 1.1
2016-Jun-19 16:33N 42°29' E 018°43'9 8.9
2016-Jun-19 15:33N 42°24' E 018°33'1514.6
2016-Jun-19 14:34N 42°15' E 018°48'3 2.6
2016-Jun-19 13:32N 42°16' E 018°52'0 0.0
2016-Jun-19 12:33N 42°16' E 018°52'0 0.0
2016-Jun-19 11:31N 42°16' E 018°52'0 0.0
2016-Jun-19 10:31N 42°16' E 018°52'1 0.6
2016-Jun-19 08:24N 42°15' E 018°53'4 4.7
2016-Jun-19 07:33N 42°15' E 018°48'10 9.7
2016-Jun-19 06:33N 42°21' E 018°37'5 5.0
2016-Jun-19 05:33N 42°26' E 018°37'3 3.0
2016-Jun-19 04:32N 42°26' E 018°41'0 0.0
2016-Jun-19 03:32N 42°26' E 018°41'0 0.0
2016-Jun-19 02:33N 42°26' E 018°41'0 0.0
2016-Jun-19 01:31N 42°26' E 018°41'0 0.0
2016-Jun-19 00:31N 42°26' E 018°41'0 0.0
2016-Jun-18 23:32N 42°26' E 018°41'0 0.0
2016-Jun-18 22:33N 42°26' E 018°41'0 0.0
2016-Jun-18 21:33N 42°26' E 018°41'0 0.0
2016-Jun-18 20:31N 42°26' E 018°41'0 0.0
2016-Jun-18 19:32N 42°26' E 018°41'0 0.0
2016-Jun-18 18:32N 42°26' E 018°41'0 0.0
2016-Jun-18 17:33N 42°26' E 018°41'0 0.0
2016-Jun-18 16:31N 42°26' E 018°41'0 0.0
2016-Jun-18 15:31N 42°26' E 018°41'0 0.0
2016-Jun-18 14:32N 42°26' E 018°41'0 0.0
2016-Jun-18 13:33N 42°26' E 018°41'0 0.0
2016-Jun-18 12:33N 42°26' E 018°41'0 0.0
2016-Jun-18 11:31N 42°26' E 018°41'0 0.0
2016-Jun-18 10:32N 42°26' E 018°41'0 0.0
2016-Jun-18 09:32N 42°26' E 018°41'0 0.0
2016-Jun-18 08:33N 42°26' E 018°41'0 0.0
2016-Jun-18 07:31N 42°26' E 018°41'0 0.0
2016-Jun-18 06:31N 42°26' E 018°41'0 0.0
2016-Jun-18 05:32N 42°26' E 018°41'0 0.0
2016-Jun-18 04:30N 42°26' E 018°41'0 0.0
2016-Jun-18 03:33N 42°26' E 018°41'0 0.0
2016-Jun-18 02:31N 42°26' E 018°41'0 0.0
2016-Jun-18 01:32N 42°26' E 018°41'0 0.0
2016-Jun-18 00:32N 42°26' E 018°41'0 0.0
2016-Jun-17 23:33N 42°26' E 018°41'0 0.0
2016-Jun-17 22:31N 42°26' E 018°41'0 0.0
2016-Jun-17 21:31N 42°26' E 018°41'0 0.0
2016-Jun-17 20:32N 42°26' E 018°41'0 0.0
2016-Jun-17 19:33N 42°26' E 018°41'0 0.0
2016-Jun-17 18:33N 42°26' E 018°41'0 0.0
2016-Jun-17 17:31N 42°26' E 018°41'0 0.0
2016-Jun-17 16:32N 42°26' E 018°41'0 0.0
2016-Jun-17 15:32N 42°26' E 018°41'0 0.0
2016-Jun-17 14:33N 42°26' E 018°41'0 0.0
2016-Jun-17 13:31N 42°26' E 018°41'0 0.0
2016-Jun-17 12:31N 42°26' E 018°41'0 0.0
2016-Jun-17 11:32N 42°26' E 018°41'0 0.0
2016-Jun-17 10:33N 42°26' E 018°41'0 0.0
2016-Jun-17 09:33N 42°26' E 018°41'0 0.0
2016-Jun-17 08:31N 42°26' E 018°41'0 0.0
2016-Jun-17 07:32N 42°26' E 018°41'0 0.0
2016-Jun-17 06:32N 42°26' E 018°41'0 0.0
2016-Jun-17 05:33N 42°26' E 018°41'0 0.0
2016-Jun-17 04:31N 42°26' E 018°41'0 0.0
2016-Jun-17 03:31N 42°26' E 018°41'0 0.0
2016-Jun-17 02:32N 42°26' E 018°41'0 0.0
2016-Jun-17 01:33N 42°26' E 018°41'0 0.0
2016-Jun-17 00:33N 42°26' E 018°41'0 0.0
2016-Jun-16 23:31N 42°26' E 018°41'0 0.0
2016-Jun-16 22:32N 42°26' E 018°41'0 0.0
2016-Jun-16 21:32N 42°26' E 018°41'0 0.0
2016-Jun-16 20:33N 42°26' E 018°41'0 0.0
2016-Jun-16 19:31N 42°26' E 018°41'0 0.0
2016-Jun-16 18:32N 42°26' E 018°41'0 0.0
2016-Jun-16 17:32N 42°26' E 018°41'0 0.0
2016-Jun-16 16:33N 42°26' E 018°41'0 0.0
2016-Jun-16 15:34N 42°26' E 018°41'0 0.0
2016-Jun-16 14:31N 42°26' E 018°41'0 0.0
2016-Jun-16 13:32N 42°26' E 018°41'0 0.0
2016-Jun-16 12:33N 42°26' E 018°41'0 0.0
2016-Jun-16 11:33N 42°26' E 018°41'0 0.0
2016-Jun-16 10:31N 42°26' E 018°41'0 0.0
2016-Jun-16 09:32N 42°26' E 018°41'0 0.0
2016-Jun-16 08:32N 42°26' E 018°41'0 0.0
2016-Jun-16 07:33N 42°26' E 018°41'0 0.0
2016-Jun-16 01:28N 42°26' E 018°41'0 0.0
2016-Jun-16 00:32N 42°26' E 018°41'0 0.0
2016-Jun-15 23:32N 42°26' E 018°41'0 0.0
2016-Jun-15 22:33N 42°26' E 018°41'0 0.0
2016-Jun-15 21:31N 42°26' E 018°41'0 0.0
2016-Jun-15 20:31N 42°26' E 018°41'0 0.0
2016-Jun-15 19:32N 42°26' E 018°41'0 0.0
2016-Jun-15 18:33N 42°26' E 018°41'0 0.0
2016-Jun-15 17:33N 42°26' E 018°41'0 0.0
2016-Jun-15 16:31N 42°26' E 018°41'0 0.0
2016-Jun-15 15:32N 42°26' E 018°41'0 0.0
2016-Jun-15 14:32N 42°26' E 018°41'0 0.0
2016-Jun-15 13:33N 42°26' E 018°41'0 0.0
2016-Jun-15 12:31N 42°26' E 018°41'0 0.0
2016-Jun-15 11:31N 42°26' E 018°41'0 0.0
2016-Jun-15 10:32N 42°26' E 018°41'0 0.0
2016-Jun-15 09:33N 42°26' E 018°41'0 0.0
2016-Jun-15 08:33N 42°26' E 018°41'0 0.0
2016-Jun-15 07:31N 42°26' E 018°41'0 0.0
2016-Jun-15 06:32N 42°26' E 018°41'0 0.0
2016-Jun-15 05:32N 42°26' E 018°41'0 0.0
2016-Jun-15 04:33N 42°26' E 018°41'0 0.0
2016-Jun-15 03:31N 42°26' E 018°41'0 0.0
2016-Jun-15 02:31N 42°26' E 018°41'0 0.0
2016-Jun-15 01:32N 42°26' E 018°41'0 0.0
2016-Jun-15 00:33N 42°26' E 018°41'0 0.0
2016-Jun-14 23:33N 42°26' E 018°41'0 0.0
2016-Jun-14 22:31N 42°26' E 018°41'0 0.0
2016-Jun-14 21:32N 42°26' E 018°41'0 0.0
2016-Jun-14 20:32N 42°26' E 018°41'0 0.0
2016-Jun-14 19:33N 42°26' E 018°41'0 0.0
2016-Jun-14 18:31N 42°26' E 018°41'0 0.0
2016-Jun-14 17:31N 42°26' E 018°41'0 0.0
2016-Jun-14 16:32N 42°26' E 018°41'0 0.0
2016-Jun-14 15:33N 42°26' E 018°41'0 0.0
2016-Jun-14 14:33N 42°26' E 018°41'0 0.0
2016-Jun-14 13:31N 42°26' E 018°41'0 0.0
2016-Jun-14 12:32N 42°26' E 018°41'0 0.0
2016-Jun-14 05:33N 42°26' E 018°41'0 0.0
2016-Jun-14 04:31N 42°26' E 018°41'0 0.0
2016-Jun-14 03:32N 42°26' E 018°41'0 0.0
2016-Jun-14 02:32N 42°26' E 018°41'0 0.0
2016-Jun-14 01:33N 42°26' E 018°41'0 0.0
2016-Jun-14 00:31N 42°26' E 018°41'0 0.0
2016-Jun-13 23:31N 42°26' E 018°41'0 0.0
2016-Jun-13 22:26N 42°26' E 018°41'0 0.0
2016-Jun-13 21:33N 42°26' E 018°41'0 0.0
2016-Jun-13 20:33N 42°26' E 018°41'0 0.0
2016-Jun-13 19:31N 42°26' E 018°41'0 0.0
2016-Jun-13 18:32N 42°26' E 018°41'0 0.0
2016-Jun-13 17:32N 42°26' E 018°41'0 0.0
2016-Jun-13 16:33N 42°26' E 018°41'0 0.0
2016-Jun-13 15:31N 42°26' E 018°41'0 0.0
2016-Jun-13 14:31N 42°26' E 018°41'0 0.0
2016-Jun-13 13:32N 42°26' E 018°41'0 0.0
2016-Jun-13 12:33N 42°26' E 018°41'0 0.0
2016-Jun-13 11:33N 42°26' E 018°41'0 0.0
2016-Jun-13 10:31N 42°26' E 018°41'0 0.0
2016-Jun-13 09:32N 42°26' E 018°41'0 0.0
2016-Jun-13 08:32N 42°26' E 018°41'0 0.0
2016-Jun-12 20:32N 42°26' E 018°41'0 0.0
2016-Jun-12 19:32N 42°26' E 018°41'0 0.0
2016-Jun-12 18:33N 42°26' E 018°41'0 0.0
2016-Jun-12 17:34N 42°26' E 018°41'0 0.0
2016-Jun-12 10:20N 42°26' E 018°41'0 0.0
2016-Jun-12 09:33N 42°26' E 018°41'0 0.0
2016-Jun-12 08:31N 42°26' E 018°41'0 0.1
2016-Jun-12 07:34N 42°26' E 018°41'0 0.4
2016-Jun-12 06:33N 42°26' E 018°41'0 0.0
2016-Jun-12 04:32N 42°26' E 018°41'0 0.0
2016-Jun-12 03:32N 42°26' E 018°41'0 0.0
2016-Jun-12 02:33N 42°26' E 018°41'0 0.0
2016-Jun-12 01:31N 42°26' E 018°41'0 0.0
2016-Jun-12 00:31N 42°26' E 018°41'1 1.5
2016-Jun-11 23:34N 42°26' E 018°39'8 8.1
2016-Jun-11 22:34N 42°19' E 018°34'1615.6
2016-Jun-11 21:34N 42°04' E 018°38'  
Track history (hours):
 
Tides and Currents Weather Stations Pressure Air Temp Water Temp Dewpoint Dewpoint Depression Visibility Wind Speed Wind Dir Waves Ship Positions

Qm Of London

Last reported at 2016-Jun-19 20:08 UTC. Time now 2016-Jun-25 14:21 UTC.
Position N 42°25' E 018°28'.

Length 50 m; draft 2.7 m.

Type: Pleasure craft. MMSI: 319780000.

Date/timePositionNaut miles runAvg speedWind from/ knotsBaromVisibWave heightAir tempDewpointWater temp
2016-Jun-19 20:08N 42°25' E 018°28'4 7.6
2016-Jun-19 19:33N 42°26' E 018°34'5 5.4
2016-Jun-19 18:33N 42°26' E 018°41'4 3.5
2016-Jun-19 17:33N 42°28' E 018°45'1 1.1
2016-Jun-19 16:33N 42°29' E 018°43'9 8.9
2016-Jun-19 15:33N 42°24' E 018°33'1514.6
2016-Jun-19 14:34N 42°15' E 018°48'3 2.6
2016-Jun-19 13:32N 42°16' E 018°52'0 0.0
2016-Jun-19 12:33N 42°16' E 018°52'0 0.0
2016-Jun-19 11:31N 42°16' E 018°52'0 0.0
2016-Jun-19 10:31N 42°16' E 018°52'1 0.6
2016-Jun-19 08:24N 42°15' E 018°53'4 4.7
2016-Jun-19 07:33N 42°15' E 018°48'10 9.7
2016-Jun-19 06:33N 42°21' E 018°37'5 5.0
2016-Jun-19 05:33N 42°26' E 018°37'3 3.0
2016-Jun-19 04:32N 42°26' E 018°41'0 0.0
2016-Jun-19 03:32N 42°26' E 018°41'0 0.0
2016-Jun-19 02:33N 42°26' E 018°41'0 0.0
2016-Jun-19 01:31N 42°26' E 018°41'0 0.0
2016-Jun-19 00:31N 42°26' E 018°41'0 0.0
2016-Jun-18 23:32N 42°26' E 018°41'0 0.0
2016-Jun-18 22:33N 42°26' E 018°41'0 0.0
2016-Jun-18 21:33N 42°26' E 018°41'0 0.0
2016-Jun-18 20:31N 42°26' E 018°41'0 0.0
2016-Jun-18 19:32N 42°26' E 018°41'0 0.0
2016-Jun-18 18:32N 42°26' E 018°41'0 0.0
2016-Jun-18 17:33N 42°26' E 018°41'0 0.0
2016-Jun-18 16:31N 42°26' E 018°41'0 0.0
2016-Jun-18 15:31N 42°26' E 018°41'0 0.0
2016-Jun-18 14:32N 42°26' E 018°41'0 0.0
2016-Jun-18 13:33N 42°26' E 018°41'0 0.0
2016-Jun-18 12:33N 42°26' E 018°41'0 0.0
2016-Jun-18 11:31N 42°26' E 018°41'0 0.0
2016-Jun-18 10:32N 42°26' E 018°41'0 0.0
2016-Jun-18 09:32N 42°26' E 018°41'0 0.0
2016-Jun-18 08:33N 42°26' E 018°41'0 0.0
2016-Jun-18 07:31N 42°26' E 018°41'0 0.0
2016-Jun-18 06:31N 42°26' E 018°41'0 0.0
2016-Jun-18 05:32N 42°26' E 018°41'0 0.0
2016-Jun-18 04:30N 42°26' E 018°41'0 0.0
2016-Jun-18 03:33N 42°26' E 018°41'0 0.0
2016-Jun-18 02:31N 42°26' E 018°41'0 0.0
2016-Jun-18 01:32N 42°26' E 018°41'0 0.0
2016-Jun-18 00:32N 42°26' E 018°41'0 0.0
2016-Jun-17 23:33N 42°26' E 018°41'0 0.0
2016-Jun-17 22:31N 42°26' E 018°41'0 0.0
2016-Jun-17 21:31N 42°26' E 018°41'0 0.0
2016-Jun-17 20:32N 42°26' E 018°41'0 0.0
2016-Jun-17 19:33N 42°26' E 018°41'0 0.0
2016-Jun-17 18:33N 42°26' E 018°41'0 0.0
2016-Jun-17 17:31N 42°26' E 018°41'0 0.0
2016-Jun-17 16:32N 42°26' E 018°41'0 0.0
2016-Jun-17 15:32N 42°26' E 018°41'0 0.0
2016-Jun-17 14:33N 42°26' E 018°41'0 0.0
2016-Jun-17 13:31N 42°26' E 018°41'0 0.0
2016-Jun-17 12:31N 42°26' E 018°41'0 0.0
2016-Jun-17 11:32N 42°26' E 018°41'0 0.0
2016-Jun-17 10:33N 42°26' E 018°41'0 0.0
2016-Jun-17 09:33N 42°26' E 018°41'0 0.0
2016-Jun-17 08:31N 42°26' E 018°41'0 0.0
2016-Jun-17 07:32N 42°26' E 018°41'0 0.0
2016-Jun-17 06:32N 42°26' E 018°41'0 0.0
2016-Jun-17 05:33N 42°26' E 018°41'0 0.0
2016-Jun-17 04:31N 42°26' E 018°41'0 0.0
2016-Jun-17 03:31N 42°26' E 018°41'0 0.0
2016-Jun-17 02:32N 42°26' E 018°41'0 0.0
2016-Jun-17 01:33N 42°26' E 018°41'0 0.0
2016-Jun-17 00:33N 42°26' E 018°41'0 0.0
2016-Jun-16 23:31N 42°26' E 018°41'0 0.0
2016-Jun-16 22:32N 42°26' E 018°41'0 0.0
2016-Jun-16 21:32N 42°26' E 018°41'0 0.0
2016-Jun-16 20:33N 42°26' E 018°41'0 0.0
2016-Jun-16 19:31N 42°26' E 018°41'0 0.0
2016-Jun-16 18:32N 42°26' E 018°41'0 0.0
2016-Jun-16 17:32N 42°26' E 018°41'0 0.0
2016-Jun-16 16:33N 42°26' E 018°41'0 0.0
2016-Jun-16 15:34N 42°26' E 018°41'0 0.0
2016-Jun-16 14:31N 42°26' E 018°41'0 0.0
2016-Jun-16 13:32N 42°26' E 018°41'0 0.0
2016-Jun-16 12:33N 42°26' E 018°41'0 0.0
2016-Jun-16 11:33N 42°26' E 018°41'0 0.0
2016-Jun-16 10:31N 42°26' E 018°41'0 0.0
2016-Jun-16 09:32N 42°26' E 018°41'0 0.0
2016-Jun-16 08:32N 42°26' E 018°41'0 0.0
2016-Jun-16 07:33N 42°26' E 018°41'0 0.0
2016-Jun-16 01:28N 42°26' E 018°41'0 0.0
2016-Jun-16 00:32N 42°26' E 018°41'0 0.0
2016-Jun-15 23:32N 42°26' E 018°41'0 0.0
2016-Jun-15 22:33N 42°26' E 018°41'0 0.0
2016-Jun-15 21:31N 42°26' E 018°41'0 0.0
2016-Jun-15 20:31N 42°26' E 018°41'0 0.0
2016-Jun-15 19:32N 42°26' E 018°41'0 0.0
2016-Jun-15 18:33N 42°26' E 018°41'0 0.0
2016-Jun-15 17:33N 42°26' E 018°41'0 0.0
2016-Jun-15 16:31N 42°26' E 018°41'0 0.0
2016-Jun-15 15:32N 42°26' E 018°41'0 0.0
2016-Jun-15 14:32N 42°26' E 018°41'0 0.0
2016-Jun-15 13:33N 42°26' E 018°41'0 0.0
2016-Jun-15 12:31N 42°26' E 018°41'0 0.0
2016-Jun-15 11:31N 42°26' E 018°41'0 0.0
2016-Jun-15 10:32N 42°26' E 018°41'0 0.0
2016-Jun-15 09:33N 42°26' E 018°41'0 0.0
2016-Jun-15 08:33N 42°26' E 018°41'0 0.0
2016-Jun-15 07:31N 42°26' E 018°41'0 0.0
2016-Jun-15 06:32N 42°26' E 018°41'0 0.0
2016-Jun-15 05:32N 42°26' E 018°41'0 0.0
2016-Jun-15 04:33N 42°26' E 018°41'0 0.0
2016-Jun-15 03:31N 42°26' E 018°41'0 0.0
2016-Jun-15 02:31N 42°26' E 018°41'0 0.0
2016-Jun-15 01:32N 42°26' E 018°41'0 0.0
2016-Jun-15 00:33N 42°26' E 018°41'0 0.0
2016-Jun-14 23:33N 42°26' E 018°41'0 0.0
2016-Jun-14 22:31N 42°26' E 018°41'0 0.0
2016-Jun-14 21:32N 42°26' E 018°41'0 0.0
2016-Jun-14 20:32N 42°26' E 018°41'0 0.0
2016-Jun-14 19:33N 42°26' E 018°41'0 0.0
2016-Jun-14 18:31N 42°26' E 018°41'0 0.0
2016-Jun-14 17:31N 42°26' E 018°41'0 0.0
2016-Jun-14 16:32N 42°26' E 018°41'0 0.0
2016-Jun-14 15:33N 42°26' E 018°41'0 0.0
2016-Jun-14 14:33N 42°26' E 018°41'0 0.0
2016-Jun-14 13:31N 42°26' E 018°41'0 0.0
2016-Jun-14 12:32N 42°26' E 018°41'0 0.0
2016-Jun-14 05:33N 42°26' E 018°41'0 0.0
2016-Jun-14 04:31N 42°26' E 018°41'0 0.0
2016-Jun-14 03:32N 42°26' E 018°41'0 0.0
2016-Jun-14 02:32N 42°26' E 018°41'0 0.0
2016-Jun-14 01:33N 42°26' E 018°41'0 0.0
2016-Jun-14 00:31N 42°26' E 018°41'0 0.0
2016-Jun-13 23:31N 42°26' E 018°41'0 0.0
2016-Jun-13 22:26N 42°26' E 018°41'0 0.0
2016-Jun-13 21:33N 42°26' E 018°41'0 0.0
2016-Jun-13 20:33N 42°26' E 018°41'0 0.0
2016-Jun-13 19:31N 42°26' E 018°41'0 0.0
2016-Jun-13 18:32N 42°26' E 018°41'0 0.0
2016-Jun-13 17:32N 42°26' E 018°41'0 0.0
2016-Jun-13 16:33N 42°26' E 018°41'0 0.0
2016-Jun-13 15:31N 42°26' E 018°41'0 0.0
2016-Jun-13 14:31N 42°26' E 018°41'0 0.0
2016-Jun-13 13:32N 42°26' E 018°41'0 0.0
2016-Jun-13 12:33N 42°26' E 018°41'0 0.0
2016-Jun-13 11:33N 42°26' E 018°41'0 0.0
2016-Jun-13 10:31N 42°26' E 018°41'0 0.0
2016-Jun-13 09:32N 42°26' E 018°41'0 0.0
2016-Jun-13 08:32N 42°26' E 018°41'0 0.0
2016-Jun-12 20:32N 42°26' E 018°41'0 0.0
2016-Jun-12 19:32N 42°26' E 018°41'0 0.0
2016-Jun-12 18:33N 42°26' E 018°41'0 0.0
2016-Jun-12 17:34N 42°26' E 018°41'0 0.0
2016-Jun-12 10:20N 42°26' E 018°41'0 0.0
2016-Jun-12 09:33N 42°26' E 018°41'0 0.0
2016-Jun-12 08:31N 42°26' E 018°41'0 0.1
2016-Jun-12 07:34N 42°26' E 018°41'0 0.4
2016-Jun-12 06:33N 42°26' E 018°41'0 0.0
2016-Jun-12 04:32N 42°26' E 018°41'0 0.0
2016-Jun-12 03:32N 42°26' E 018°41'0 0.0
2016-Jun-12 02:33N 42°26' E 018°41'0 0.0
2016-Jun-12 01:31N 42°26' E 018°41'0 0.0
2016-Jun-12 00:31N 42°26' E 018°41'1 1.5
2016-Jun-11 23:34N 42°26' E 018°39'8 8.1
2016-Jun-11 22:34N 42°19' E 018°34'1615.6
2016-Jun-11 21:34N 42°04' E 018°38'  

Dump ship's entire track history